Thunder radar more information blitzortung!


Rain radar more information rain snow radar


altri nostri siti meteo:

PomeziameteoStazione ufficiale di Pomezia

MeteopomeziaSito sulle condizioni meteo



Nessuna attenzione particolare richiesta.    Non ci sono allerte meteo

Report METAR

   
LIMP - Parma
Dati ricevuti: 27-09-2020 16:50
Parzialmente nuvoloso  
Parzialmente nuvoloso  
   Vento: Oriente 20.4 km/h
Vento: Oriente 20.4 km/h
Temperatura: 17°C
P.to Rugiada: 6°C
Umidita: 49%
Barometro: 1004 hPa
Nuvole: Parzialmente nuvoloso
Visibilita: oltre 10 km
dettagli cloud: Parzialmente nuvoloso 3000 ft
LIMP 271450Z 10011KT 9999 SCT030 17/06 Q1004
LIPE - Bologna
Dati ricevuti: 27-09-2020 17:20
Sereno  
Sereno  
   Vento: NE 14.8 km/h
Vento: NE 14.8 km/h
Temperatura: 15°C
P.to Rugiada: 10°C
Umidita: 72%
Barometro: 1004 hPa
Visibilita: oltre 10 km
dettagli cloud: Sereno
LIPE 271520Z 05008KT CAVOK 15/10 Q1004
LIPO - Brescia/Montichi
Dati ricevuti: 27-09-2020 16:50
Molto nuvoloso  
Molto nuvoloso  
   Vento: Oriente 14.8 km/h
Vento: Oriente 14.8 km/h
Temperatura: 16°C
P.to Rugiada: 8°C
Umidita: 59%
Barometro: 1005 hPa
Nuvole: Molto nuvoloso
Visibilita: oltre 10 km
dettagli cloud: Molto nuvoloso 8100 ft
LIPO 271450Z AUTO 08008KT 050V120 9999 BKN081/// 16/08 Q1005
LIPF - Ferrara
Dati ricevuti: 27-09-2020 16:55
Parzialmente nuvoloso  
Parzialmente nuvoloso  
   Vento: Variabile calma
Vento: Variabile calma
Temperatura: 13°C
P.to Rugiada: 9°C
Umidita: 77%
Barometro: 1004 hPa
Nuvole: Parzialmente nuvoloso
Visibilita: oltre 10 km
dettagli cloud: Parzialmente nuvoloso 5000 ft
LIPF 271455Z /////KT 9999 SCT050 13/09 Q1004
LIPL - Ghedi
Dati ricevuti: 27-09-2020 16:55
Pioggia leggera, Parzialmente nuvoloso  
Pioggia leggera, Parzialmente nuvoloso  
   Vento: Nord 5.6 km/h
Vento: Nord 5.6 km/h
Temperatura: 16°C
P.to Rugiada: 8°C
Umidita: 59%
Barometro: 1004 hPa
Nuvole: Parzialmente nuvoloso
Visibilita: oltre 10 km
dettagli cloud: Poche nuvole 3000 ft,
Parzialmente nuvoloso 5000 ft
LIPL 271455Z 35003KT 9999 -RA FEW030CB SCT050 16/08 Q1004 RMK BKN VIS MIN 9999 WIND THR31 02005KT WIND THR13 35008KT BLU
LIVC - Monte Cimone
Dati ricevuti: 27-09-2020 16:55
  
  
   Vento: NE 35.2 km/h<br />Gust to 35.2 km/h
Vento: NE 35.2 km/h
Gust to 35.2 km/h
Temperatura: -1°C
Temperatura Vento: -8°C
P.to Rugiada: -1°C
Umidita: 100%
Barometro: 1004 hPa
LIVC 271455Z AUTO 04019G29KT //// M01/M01 Q1004
LIMS - Piacenza
Dati ricevuti: 27-09-2020 16:55
Parzialmente nuvoloso  
Parzialmente nuvoloso  
   Vento: SE 18.5 km/h
Vento: SE 18.5 km/h
Temperatura: 18°C
P.to Rugiada: 9°C
Umidita: 56%
Barometro: 1003 hPa
Nuvole: Parzialmente nuvoloso
Visibilita: oltre 10 km
dettagli cloud: Parzialmente nuvoloso 4000 ft
LIMS 271455Z 12010KT 080V150 9999 SCT040 18/09 Q1003
LIMT - Passo della Cisa
Dati ricevuti: 23-09-2019 13:55
DATI Obsoleti
Nebbia  
Nebbia  
   Vento: calma
Vento: calma
Temperatura: 10°C
P.to Rugiada: 10°C
Umidita: 100%
Barometro: 1014 hPa
Visibilita: 0 km
dettagli cloud: Coperto
LIMT 231155Z 00000KT 0000 FG VV/// 10/10 Q1014 RMK MON INVIS VAL INVIS VIS MIN 0000
LIPU - Padova
Dati ricevuti: 27-09-2020 08:00
DATI Obsoleti
Sereno  
Sereno  
   Vento: NE 7.4 km/h
Vento: NE 7.4 km/h
Temperatura: 12°C
P.to Rugiada: 9°C
Umidita: 82%
Barometro: 1004 hPa
Visibilita: oltre 10 km
dettagli cloud: Sereno
LIPU 270600Z 02004KT CAVOK 12/09 Q1004

Script sviluppato da  Saratoga-weather.org Adattato per il modello da  Weerstation Leuven

Strumentazione usata:

Stazione meteo
Davis VP2

Programma gestore dati meteo
WVIEW

Server per i dati meteo
Pc-WDS5

Davis VP2

WVIEW

Pc-WDS5